Time;durP1;ratioP1;P1;durP2;ratioP2;P2;SDS_P1;SDS_P2;PMS_P1;PMS_P2;Temp;Humidity;BMP_temperature;BMP_pressure;BME280_temperature;BME280_humidity;BME280_pressure;Samples;Min_cycle;Max_cycle;Signal;HPM_P1;HPM_P2
2021/11/03 00:02:20;;;;;;;;;9.25;8.25;;;;;10.30;69.54;99033.19;5075868;28;51443;-62
2021/11/03 00:04:45;;;;;;;;;9.75;7.50;;;;;10.29;69.78;99036.81;5075352;28;64355;-62
2021/11/03 00:07:11;;;;;;;;;10.25;10.00;;;;;10.29;69.51;99028.94;5075431;28;65228;-60
2021/11/03 00:09:37;;;;;;;;;11.25;10.50;;;;;10.30;69.38;99028.78;5076063;28;45497;-63
2021/11/03 00:12:02;;;;;;;;;7.50;7.00;;;;;10.29;69.70;99021.06;5075000;28;45345;-62
2021/11/03 00:14:28;;;;;;;;;7.00;7.00;;;;;10.27;69.56;99025.66;5057795;28;45566;-62
2021/11/03 00:16:53;;;;;;;;;12.50;9.00;;;;;10.26;69.65;99024.84;5075109;28;70416;-61
2021/11/03 00:19:18;;;;;;;;;11.25;11.00;;;;;10.25;69.56;99018.78;5075942;28;45362;-61
2021/11/03 00:21:44;;;;;;;;;11.00;9.25;;;;;10.27;69.86;99020.41;5078280;28;64463;-62
2021/11/03 00:24:09;;;;;;;;;10.00;9.00;;;;;10.25;69.94;99016.16;5078505;28;60489;-62
2021/11/03 00:26:35;;;;;;;;;9.25;8.25;;;;;10.27;69.82;99021.25;5078862;28;60450;-62
2021/11/03 00:29:00;;;;;;;;;8.75;7.25;;;;;10.26;69.60;99019.59;5078729;28;64768;-62
2021/11/03 00:31:25;;;;;;;;;8.00;7.00;;;;;10.25;69.34;99010.09;5077713;28;57448;-62
2021/11/03 00:33:51;;;;;;;;;8.50;7.25;;;;;10.25;69.29;99010.91;5077455;28;60995;-62
2021/11/03 00:36:16;;;;;;;;;7.75;7.00;;;;;10.25;69.36;99005.66;5077751;28;46240;-61
2021/11/03 00:38:42;;;;;;;;;7.00;7.00;;;;;10.24;69.24;99009.25;5078468;28;64683;-62
2021/11/03 00:41:07;;;;;;;;;8.50;7.75;;;;;10.21;69.14;99004.34;5078891;28;53330;-62
2021/11/03 00:43:32;;;;;;;;;8.25;8.00;;;;;10.21;69.45;99012.22;5077622;28;50899;-61
2021/11/03 00:45:58;;;;;;;;;3.50;3.50;;;;;10.21;69.39;99006.16;5079000;28;45417;-61
2021/11/03 00:48:23;;;;;;;;;9.50;7.00;;;;;10.20;69.26;99004.53;5078366;28;64645;-62
2021/11/03 00:50:49;;;;;;;;;6.75;6.25;;;;;10.15;69.08;99010.28;5078653;28;57978;-62
2021/11/03 00:53:14;;;;;;;;;8.25;7.50;;;;;10.14;69.05;99011.28;5079258;28;45643;-62
2021/11/03 00:55:41;;;;;;;;;7.50;6.50;;;;;10.12;69.55;99010.63;5078776;28;45303;-62
2021/11/03 00:58:06;;;;;;;;;8.00;7.00;;;;;10.10;69.47;99005.56;5078848;28;45225;-63
2021/11/03 01:00:33;;;;;;;;;9.00;8.00;;;;;10.10;69.46;99004.72;5078129;28;63143;-61
2021/11/03 01:02:58;;;;;;;;;8.00;7.00;;;;;10.07;69.62;98992.78;5079011;28;45152;-62
2021/11/03 01:05:24;;;;;;;;;9.75;8.50;;;;;10.07;69.58;98987.53;5077779;28;66192;-61
2021/11/03 01:07:49;;;;;;;;;10.75;9.00;;;;;10.07;69.57;98986.69;5078829;28;45819;-62
2021/11/03 01:10:17;;;;;;;;;10.00;7.00;;;;;10.06;69.50;98983.25;5078430;28;50860;-62
2021/11/03 01:12:43;;;;;;;;;11.00;8.25;;;;;10.06;69.69;98988.50;5078722;28;45528;-62
2021/11/03 01:15:11;;;;;;;;;7.50;7.50;;;;;10.06;69.81;98980.66;5078715;28;46540;-61
2021/11/03 01:17:36;;;;;;;;;9.75;8.00;;;;;10.06;70.26;98978.03;5077435;28;45412;-62
2021/11/03 01:20:04;;;;;;;;;8.00;7.75;;;;;10.07;70.13;98973.56;5078360;28;50369;-61
2021/11/03 01:22:29;;;;;;;;;11.75;8.00;;;;;10.09;70.15;98982.09;5077340;28;45263;-62
2021/11/03 01:24:55;;;;;;;;;7.75;6.25;;;;;10.09;70.12;98982.09;5077405;28;64418;-62
2021/11/03 01:27:20;;;;;;;;;10.25;6.25;;;;;10.09;69.95;98988.19;5077469;28;70848;-62
2021/11/03 01:29:45;;;;;;;;;8.75;8.50;;;;;10.09;69.99;98982.94;5077677;28;64417;-62
2021/11/03 01:32:11;;;;;;;;;6.75;6.75;;;;;10.09;69.60;98982.09;5077087;28;65065;-62
2021/11/03 01:34:36;;;;;;;;;8.25;7.00;;;;;10.09;70.04;98984.72;5077422;28;70585;-62
2021/11/03 01:37:02;;;;;;;;;13.25;10.00;;;;;10.07;70.15;98984.91;5077403;28;68072;-62
2021/11/03 01:39:27;;;;;;;;;6.75;6.75;;;;;10.07;69.86;98978.81;5077794;28;59029;-62
2021/11/03 01:41:52;;;;;;;;;9.00;9.00;;;;;10.08;69.78;98985.72;5077445;28;66145;-63
2021/11/03 01:44:18;;;;;;;;;10.75;8.00;;;;;10.06;69.92;98985.09;5077538;28;61260;-62
2021/11/03 01:46:54;;;;;;;;;6.00;6.00;;;;;10.07;70.04;98989.31;5076831;28;49224;-62
2021/11/03 01:49:24;;;;;;;;;6.25;6.00;;;;;10.07;70.40;98986.69;5077065;28;45400;-63
2021/11/03 01:51:55;;;;;;;;;7.25;6.00;;;;;10.07;70.26;98978.81;5078250;28;45263;-62
2021/11/03 01:54:24;;;;;;;;;6.75;6.00;;;;;10.07;70.12;98979.66;5078037;28;46310;-62
2021/11/03 01:56:49;;;;;;;;;6.00;6.00;;;;;10.09;70.40;98971.59;5076850;28;45813;-63
2021/11/03 01:59:21;;;;;;;;;8.00;7.00;;;;;10.10;70.41;98983.72;5059627;28;51008;-62
2021/11/03 02:01:46;;;;;;;;;6.00;5.75;;;;;10.09;69.87;98987.34;5076944;28;45253;-61
2021/11/03 02:04:12;;;;;;;;;7.50;5.75;;;;;10.09;70.18;98982.09;5076462;28;45356;-63
2021/11/03 02:06:37;;;;;;;;;6.25;6.00;;;;;10.10;70.01;98988.97;5075529;28;71175;-62
2021/11/03 02:09:03;;;;;;;;;5.75;4.75;;;;;10.09;70.21;98984.72;5077747;28;49253;-62
2021/11/03 02:11:28;;;;;;;;;5.00;4.25;;;;;10.09;70.07;98988.19;5077650;28;46963;-62
2021/11/03 02:13:55;;;;;;;;;4.50;4.50;;;;;10.09;69.65;98987.34;5077443;28;49532;-62
2021/11/03 02:16:20;;;;;;;;;4.25;4.00;;;;;10.07;69.89;98990.16;5076703;28;45802;-62
2021/11/03 02:18:46;;;;;;;;;8.25;5.75;;;;;10.05;69.81;98986.06;5075622;28;63334;-62
2021/11/03 02:21:15;;;;;;;;;5.25;5.25;;;;;10.03;70.12;98988.06;5059566;28;45459;-62
2021/11/03 02:23:57;;;;;;;;;7.00;6.75;;;;;9.99;70.22;98984.13;5059135;28;45422;-61
2021/11/03 02:26:28;;;;;;;;;9.00;7.50;;;;;9.94;70.33;98988.09;5060134;28;45819;-62
2021/11/03 02:28:54;;;;;;;;;8.00;8.00;;;;;9.92;70.64;98978.72;5076434;28;45426;-62
2021/11/03 02:31:29;;;;;;;;;9.00;8.50;;;;;9.88;70.68;98977.44;5077557;28;45308;-61
2021/11/03 02:33:55;;;;;;;;;8.75;7.25;;;;;9.84;70.52;98982.22;5076138;28;46271;-62
2021/11/03 02:36:20;;;;;;;;;11.00;7.00;;;;;9.78;70.85;98970.59;5077513;28;45445;-62
2021/11/03 02:38:46;;;;;;;;;8.00;7.25;;;;;9.74;70.71;98971.09;5076882;28;60916;-61
2021/11/03 02:41:26;;;;;;;;;9.25;8.00;;;;;9.71;71.17;98974.06;5077365;28;45505;-62
2021/11/03 02:44:06;;;;;;;;;11.00;8.50;;;;;9.66;71.23;98971.94;5076529;28;46732;-62
2021/11/03 02:46:31;;;;;;;;;7.25;6.75;;;;;9.62;71.30;98970.66;5077124;28;49029;-62
2021/11/03 02:48:57;;;;;;;;;7.25;5.75;;;;;9.58;71.24;98979.84;5077335;28;45267;-62
2021/11/03 02:51:33;;;;;;;;;7.50;6.50;;;;;9.56;71.57;98976.56;5076484;28;65831;-62
2021/11/03 02:54:04;;;;;;;;;7.75;5.75;;;;;9.54;71.60;98974.09;5077306;27;46519;-62
2021/11/03 02:56:32;;;;;;;;;6.00;4.75;;;;;9.54;71.49;98983.78;5075718;28;45741;-62
2021/11/03 02:58:57;;;;;;;;;8.75;6.25;;;;;9.53;71.65;98980.34;5077220;28;45299;-62
2021/11/03 03:01:39;;;;;;;;;7.00;7.00;;;;;9.54;71.65;98974.09;5076864;28;45414;-62
2021/11/03 03:04:25;;;;;;;;;7.00;5.00;;;;;9.54;71.64;98981.97;5076716;28;46196;-62
2021/11/03 03:06:51;;;;;;;;;6.75;5.25;;;;;9.56;71.58;98985.22;5076887;28;45240;-62
2021/11/03 03:09:16;;;;;;;;;6.75;5.00;;;;;9.58;71.56;98977.22;5076187;28;64922;-62
2021/11/03 03:11:46;;;;;;;;;5.00;5.00;;;;;9.58;71.35;98982.47;5076087;28;65798;-61
2021/11/03 03:14:11;;;;;;;;;5.75;5.25;;;;;9.59;71.42;98986.72;5075329;28;47006;-61
2021/11/03 03:16:37;;;;;;;;;6.25;5.25;;;;;9.58;71.53;98982.47;5075902;28;68327;-62
2021/11/03 03:19:02;;;;;;;;;6.50;6.00;;;;;9.55;71.45;98983.59;5075741;28;45221;-61
2021/11/03 03:21:28;;;;;;;;;8.00;6.25;;;;;9.53;71.57;98984.75;5074649;28;45663;-62
2021/11/03 03:23:54;;;;;;;;;7.00;5.25;;;;;9.49;71.56;98992.97;5076345;28;45316;-62
2021/11/03 03:26:20;;;;;;;;;7.75;6.00;;;;;9.50;71.61;98993.78;5076666;28;45195;-62
2021/11/03 03:28:46;;;;;;;;;7.00;7.00;;;;;9.51;71.48;98995.44;5076849;28;45388;-61
2021/11/03 03:31:12;;;;;;;;;6.75;5.00;;;;;9.50;71.56;98999.03;5075688;28;67330;-60
2021/11/03 03:33:37;;;;;;;;;9.00;5.00;;;;;9.45;71.65;98996.09;5076253;28;50541;-61
2021/11/03 03:36:03;;;;;;;;;6.25;6.25;;;;;9.41;71.99;99000.84;5074196;28;72622;-62
2021/11/03 03:38:28;;;;;;;;;6.00;5.25;;;;;9.39;71.84;98994.94;5075321;28;45331;-62
2021/11/03 03:40:54;;;;;;;;;8.75;7.00;;;;;9.38;71.72;99001.16;5076600;28;45427;-62
2021/11/03 03:43:19;;;;;;;;;10.50;6.00;;;;;9.37;72.30;99010.00;5076392;28;45319;-62
2021/11/03 03:45:45;;;;;;;;;7.00;6.00;;;;;9.34;72.11;99010.34;5075663;28;64665;-62
2021/11/03 03:48:10;;;;;;;;;8.25;6.50;;;;;9.32;72.18;99015.75;5075314;28;45334;-62
2021/11/03 03:50:36;;;;;;;;;8.75;7.25;;;;;9.31;72.13;99014.13;5075719;28;62105;-62
2021/11/03 03:53:02;;;;;;;;;7.00;6.25;;;;;9.29;72.42;99013.47;5076131;28;45250;-63
2021/11/03 03:55:27;;;;;;;;;8.00;7.00;;;;;9.30;72.31;99015.13;5079107;28;45247;-62
2021/11/03 03:57:53;;;;;;;;;12.50;9.25;;;;;9.26;72.39;99016.44;5080098;28;45367;-62
2021/11/03 04:00:19;;;;;;;;;7.50;7.50;;;;;9.25;72.33;99017.41;5080039;28;45358;-62
2021/11/03 04:02:45;;;;;;;;;9.50;6.25;;;;;9.26;72.40;99018.25;5079751;28;45394;-62
2021/11/03 04:05:10;;;;;;;;;12.50;8.50;;;;;9.25;72.57;99017.41;5079573;28;45389;-62
2021/11/03 04:07:35;;;;;;;;;8.00;7.75;;;;;9.24;72.63;99018.38;5079944;28;45303;-62
2021/11/03 04:10:01;;;;;;;;;8.75;7.00;;;;;9.25;72.42;99025.28;5079934;28;45336;-61
2021/11/03 04:12:26;;;;;;;;;6.75;6.00;;;;;9.23;72.71;99024.63;5077628;28;67609;-62
2021/11/03 04:14:51;;;;;;;;;10.75;7.00;;;;;9.24;72.42;99025.44;5078806;28;66504;-62
2021/11/03 04:17:17;;;;;;;;;10.75;6.25;;;;;9.23;72.64;99027.22;5079628;28;45782;-61
2021/11/03 04:19:42;;;;;;;;;10.25;8.00;;;;;9.21;72.51;99037.06;5078729;28;64748;-62
2021/11/03 04:22:08;;;;;;;;;8.00;7.25;;;;;9.19;72.68;99034.63;5078843;28;65855;-62
2021/11/03 04:24:33;;;;;;;;;9.25;9.25;;;;;9.19;72.72;99039.03;5078583;28;65134;-61
2021/11/03 04:26:59;;;;;;;;;9.25;9.25;;;;;9.18;72.50;99035.59;5079616;28;45294;-61
2021/11/03 04:29:26;;;;;;;;;8.75;7.00;;;;;9.19;72.53;99045.09;5079639;27;45283;-61
2021/11/03 04:31:51;;;;;;;;;9.25;9.25;;;;;9.17;72.49;99047.06;5079346;28;45311;-61
2021/11/03 04:34:17;;;;;;;;;12.50;8.00;;;;;9.17;72.72;99052.31;5079339;28;45298;-62
2021/11/03 04:36:42;;;;;;;;;13.75;10.75;;;;;9.18;72.61;99058.34;5078617;28;61497;-62
2021/11/03 04:39:08;;;;;;;;;13.00;11.75;;;;;9.17;72.56;99048.84;5079220;28;45231;-61
2021/11/03 04:41:34;;;;;;;;;13.50;12.00;;;;;9.18;72.52;99056.56;5078642;28;45526;-62
2021/11/03 04:43:59;;;;;;;;;12.50;11.25;;;;;9.16;72.47;99055.91;5079017;28;45279;-62
2021/11/03 04:46:25;;;;;;;;;10.75;9.25;;;;;9.15;72.30;99059.50;5079098;28;45267;-61
2021/11/03 04:48:50;;;;;;;;;14.75;14.00;;;;;9.13;72.38;99058.03;5079195;28;45267;-62
2021/11/03 04:51:16;;;;;;;;;13.00;11.00;;;;;9.12;72.26;99057.22;5077374;28;62681;-62
2021/11/03 04:53:41;;;;;;;;;11.50;11.00;;;;;9.10;72.42;99055.72;5077977;28;70321;-62
2021/11/03 04:56:07;;;;;;;;;11.75;11.75;;;;;9.09;72.46;99051.47;5079178;28;45865;-63
2021/11/03 04:58:32;;;;;;;;;15.50;11.25;;;;;9.06;72.64;99048.19;5078898;28;45610;-62
2021/11/03 05:00:59;;;;;;;;;13.00;12.00;;;;;9.04;72.61;99052.78;5078836;28;46216;-61
2021/11/03 05:03:24;;;;;;;;;16.50;12.75;;;;;9.04;72.72;99052.78;5078769;28;45879;-61
2021/11/03 05:05:51;;;;;;;;;17.50;13.75;;;;;9.03;72.84;99056.38;5077410;28;63584;-61
2021/11/03 05:08:17;;;;;;;;;15.00;12.25;;;;;9.02;72.68;99051.31;5078851;28;45569;-61
2021/11/03 05:10:42;;;;;;;;;18.25;13.75;;;;;9.01;72.84;99053.09;5078062;28;67328;-62
2021/11/03 05:13:07;;;;;;;;;25.50;19.75;;;;;9.00;72.80;99061.97;5078603;28;45374;-62
2021/11/03 05:15:33;;;;;;;;;17.25;14.75;;;;;8.98;72.92;99056.06;5077638;28;45389;-62
2021/11/03 05:17:58;;;;;;;;;15.50;13.00;;;;;8.98;72.85;99058.69;5077364;28;45565;-61
2021/11/03 05:20:24;;;;;;;;;13.75;13.75;;;;;8.98;72.86;99063.94;5076489;28;65975;-62
2021/11/03 05:22:49;;;;;;;;;15.50;15.00;;;;;8.98;72.92;99063.94;5078439;28;45223;-62
2021/11/03 05:25:17;;;;;;;;;17.50;14.25;;;;;8.99;72.95;99064.72;5078342;28;45446;-61
2021/11/03 05:27:43;;;;;;;;;15.50;13.00;;;;;8.96;72.89;99068.50;5077209;28;45608;-61
2021/11/03 05:30:08;;;;;;;;;16.25;15.00;;;;;8.97;72.99;99066.69;5078160;28;45420;-62
2021/11/03 05:32:33;;;;;;;;;14.25;14.00;;;;;8.99;72.88;99064.72;5078426;28;45335;-61
2021/11/03 05:34:59;;;;;;;;;14.75;13.25;;;;;8.99;72.65;99065.56;5078297;28;45300;-62
2021/11/03 05:37:26;;;;;;;;;16.75;14.75;;;;;8.99;73.09;99059.50;5077345;28;64139;-62
2021/11/03 05:39:51;;;;;;;;;16.25;16.00;;;;;8.98;72.79;99063.94;5076706;28;48268;-61
2021/11/03 05:42:17;;;;;;;;;16.25;14.00;;;;;8.99;72.90;99062.94;5078240;28;45452;-61
2021/11/03 05:44:42;;;;;;;;;15.75;14.75;;;;;8.99;72.87;99064.72;5078221;28;45573;-61
2021/11/03 05:47:08;;;;;;;;;14.00;14.00;;;;;9.01;72.77;99070.63;5077429;28;64448;-62
2021/11/03 05:49:34;;;;;;;;;14.75;14.25;;;;;9.02;72.77;99064.41;5077315;28;67769;-60
2021/11/03 05:52:00;;;;;;;;;14.75;14.50;;;;;9.02;72.68;99069.66;5078024;28;45464;-61
2021/11/03 05:54:26;;;;;;;;;16.75;15.25;;;;;9.00;72.76;99071.59;5078273;28;45505;-61
2021/11/03 05:56:52;;;;;;;;;16.00;14.00;;;;;9.01;72.66;99071.44;5078274;28;45608;-62
2021/11/03 05:59:17;;;;;;;;;12.75;12.25;;;;;9.01;72.76;99079.28;5077872;28;46459;-62
2021/11/03 06:01:42;;;;;;;;;16.25;14.00;;;;;9.01;72.67;99084.53;5077152;28;67480;-62
2021/11/03 06:04:08;;;;;;;;;20.50;14.00;;;;;9.02;72.79;99075.69;5076655;28;45272;-62
2021/11/03 06:06:34;;;;;;;;;20.50;17.25;;;;;9.01;72.81;99091.59;5077242;28;59661;-62
2021/11/03 06:08:59;;;;;;;;;23.50;17.75;;;;;8.98;72.84;99084.06;5077626;28;46347;-61
2021/11/03 06:11:25;;;;;;;;;23.00;19.50;;;;;9.00;72.82;99087.31;5077589;28;45371;-61
2021/11/03 06:13:52;;;;;;;;;17.50;16.25;;;;;8.99;72.77;99089.16;5077390;28;45310;-61
2021/11/03 06:16:17;;;;;;;;;24.25;18.25;;;;;8.98;72.79;99091.91;5077026;28;62118;-62
2021/11/03 06:18:42;;;;;;;;;19.50;16.00;;;;;8.95;72.78;99095.69;5075052;28;46300;-62
2021/11/03 06:21:08;;;;;;;;;22.25;18.00;;;;;8.94;72.72;99107.13;5075626;28;63964;-61
2021/11/03 06:23:33;;;;;;;;;17.75;17.25;;;;;8.93;72.67;99096.81;5077378;28;45555;-62
2021/11/03 06:25:59;;;;;;;;;24.00;21.25;;;;;8.92;72.79;99096.00;5077459;28;45443;-61
2021/11/03 06:28:24;;;;;;;;;23.50;20.25;;;;;8.91;72.89;99095.16;5076837;28;46808;-61
2021/11/03 06:30:50;;;;;;;;;20.75;16.75;;;;;8.93;72.78;99102.03;5075758;28;47830;-62
2021/11/03 06:33:15;;;;;;;;;22.00;19.00;;;;;8.91;72.71;99107.47;5077248;28;46129;-62
2021/11/03 06:35:42;;;;;;;;;22.25;18.00;;;;;8.90;73.00;99109.25;5076576;28;59439;-61
2021/11/03 06:38:07;;;;;;;;;16.00;15.25;;;;;8.89;72.73;99107.59;5076968;28;45678;-62
2021/11/03 06:40:33;;;;;;;;;21.00;16.00;;;;;8.89;73.08;99106.81;5077298;27;45370;-61
2021/11/03 06:42:58;;;;;;;;;19.50;16.00;;;;;8.89;72.81;99112.84;5077205;28;45430;-62
2021/11/03 06:45:24;;;;;;;;;19.00;15.00;;;;;8.88;72.96;99119.06;5076090;28;68800;-62
2021/11/03 06:47:49;;;;;;;;;19.25;14.00;;;;;8.87;72.87;99124.47;5076946;28;45251;-62
2021/11/03 06:50:17;;;;;;;;;19.00;17.75;;;;;8.87;72.87;99121.84;5076995;28;45306;-62
2021/11/03 06:52:43;;;;;;;;;16.50;15.25;;;;;8.86;73.00;99123.63;5077077;28;45435;-61
2021/11/03 06:55:09;;;;;;;;;16.25;15.25;;;;;8.87;73.04;99127.09;5077046;28;45220;-62
2021/11/03 06:57:34;;;;;;;;;22.00;19.00;;;;;8.85;73.08;99131.66;5076185;28;70369;-61
2021/11/03 07:00:01;;;;;;;;;21.50;16.25;;;;;8.83;73.12;99138.88;5077025;28;45338;-61
2021/11/03 07:02:26;;;;;;;;;26.50;21.25;;;;;8.82;73.19;99142.47;5077214;28;45251;-61
2021/11/03 07:04:52;;;;;;;;;23.00;20.50;;;;;8.83;73.04;99144.91;5076186;28;58138;-61
2021/11/03 07:07:17;;;;;;;;;22.50;20.50;;;;;8.83;73.05;99154.59;5075831;28;67169;-62
2021/11/03 07:09:42;;;;;;;;;21.25;15.25;;;;;8.80;73.40;99154.91;5076111;28;59944;-61
2021/11/03 07:12:08;;;;;;;;;22.50;20.25;;;;;8.81;73.39;99161.78;5076119;28;61141;-61
2021/11/03 07:14:33;;;;;;;;;25.50;21.50;;;;;8.81;73.27;99164.41;5076806;28;45563;-62
2021/11/03 07:16:59;;;;;;;;;22.00;17.75;;;;;8.79;73.34;99163.72;5075635;28;71255;-62
2021/11/03 07:19:24;;;;;;;;;22.50;20.00;;;;;8.75;73.33;99166.66;5075667;28;68025;-62
2021/11/03 07:21:50;;;;;;;;;18.50;18.25;;;;;8.73;73.30;99168.63;5075385;28;45436;-62
2021/11/03 07:24:15;;;;;;;;;20.00;18.75;;;;;8.72;73.45;99174.84;5076266;28;45374;-62
2021/11/03 07:26:44;;;;;;;;;22.25;18.75;;;;;8.69;73.30;99175.16;5076435;28;46234;-61
2021/11/03 07:29:10;;;;;;;;;19.50;16.75;;;;;8.70;73.34;99182.03;5075151;28;65125;-62
2021/11/03 07:31:36;;;;;;;;;83.25;76.00;;;;;8.68;73.33;99193.66;5058549;28;45387;-61
2021/11/03 07:34:01;;;;;;;;;22.00;20.50;;;;;8.66;73.46;99191.19;5075682;28;66415;-62
2021/11/03 07:36:27;;;;;;;;;21.50;18.75;;;;;8.65;73.45;99192.16;5076098;28;46142;-62
2021/11/03 07:38:52;;;;;;;;;20.25;16.25;;;;;8.63;73.55;99198.53;5076319;28;45282;-62
2021/11/03 07:41:17;;;;;;;;;17.50;15.25;;;;;8.62;73.50;99205.56;5075580;28;63512;-61
2021/11/03 07:43:44;;;;;;;;;23.75;21.50;;;;;8.63;73.52;99207.19;5075601;28;55527;-61
2021/11/03 07:46:10;;;;;;;;;22.00;20.25;;;;;8.63;73.48;99212.44;5075887;28;45513;-61
2021/11/03 07:48:35;;;;;;;;;21.00;18.25;;;;;8.62;73.43;99205.56;5075285;28;60855;-62
2021/11/03 07:51:12;;;;;;;;;15.25;14.00;;;;;8.60;73.07;99220.59;5076149;28;45367;-61
2021/11/03 07:53:37;;;;;;;;;23.25;17.75;;;;;8.59;73.21;99230.25;5057995;28;45574;-62
2021/11/03 07:56:05;;;;;;;;;20.50;18.50;;;;;8.58;73.21;99228.63;5074506;28;47843;-62
2021/11/03 07:58:32;;;;;;;;;23.25;16.25;;;;;8.57;73.22;99236.63;5074772;28;45857;-62
2021/11/03 08:00:58;;;;;;;;;25.50;18.75;;;;;8.55;73.00;99233.31;5076351;28;45324;-62
2021/11/03 08:03:24;;;;;;;;;23.50;19.50;;;;;8.55;73.19;99238.56;5075203;28;62746;-62
2021/11/03 08:05:50;;;;;;;;;42.25;37.75;;;;;8.54;73.04;99244.78;5075495;28;46592;-62
2021/11/03 08:08:17;;;;;;;;;24.25;21.50;;;;;8.51;72.95;99250.31;5074644;28;45882;-62
2021/11/03 08:10:43;;;;;;;;;23.00;21.00;;;;;8.50;72.88;99248.69;5075938;28;45233;-62
2021/11/03 08:13:14;;;;;;;;;19.50;18.50;;;;;8.48;73.05;99256.66;5075958;28;45484;-61
2021/11/03 08:15:39;;;;;;;;;21.75;21.00;;;;;8.47;73.11;99260.25;5074337;28;46837;-62
2021/11/03 08:18:05;;;;;;;;;22.00;19.25;;;;;8.45;73.18;99257.81;5075597;28;45268;-61
2021/11/03 08:20:30;;;;;;;;;23.25;20.75;;;;;8.45;73.39;99257.81;5073966;28;56339;-62
2021/11/03 08:22:56;;;;;;;;;20.25;18.00;;;;;8.48;73.02;99261.09;5074796;28;66738;-61
2021/11/03 08:25:22;;;;;;;;;26.00;19.00;;;;;8.47;73.57;99265.50;5075114;28;46115;-61
2021/11/03 08:27:47;;;;;;;;;29.50;26.50;;;;;8.50;73.54;99264.38;5075462;28;45368;-62
2021/11/03 08:30:13;;;;;;;;;20.00;18.50;;;;;8.55;73.31;99272.59;5075846;28;45337;-61
2021/11/03 08:32:43;;;;;;;;;21.00;19.75;;;;;8.54;72.88;99271.78;5075596;28;45519;-61
2021/11/03 08:35:09;;;;;;;;;35.50;31.00;;;;;8.55;72.88;99270.81;5057521;28;46102;-61
2021/11/03 08:37:35;;;;;;;;;21.75;19.00;;;;;8.57;73.11;99275.88;5057410;28;45814;-61
2021/11/03 08:40:00;;;;;;;;;26.75;21.00;;;;;8.59;72.80;99276.56;5074291;28;45530;-62
2021/11/03 08:42:26;;;;;;;;;28.50;20.75;;;;;8.65;73.10;99278.56;5059734;28;46844;-61
2021/11/03 08:44:51;;;;;;;;;23.50;20.50;;;;;8.73;73.41;99276.00;5077438;28;45480;-62
2021/11/03 08:47:17;;;;;;;;;31.25;26.00;;;;;8.82;73.28;99276.03;5061084;28;45470;-62
2021/11/03 08:49:42;;;;;;;;;23.00;22.00;;;;;8.95;72.98;99286.91;5074520;28;62688;-61
2021/11/03 08:52:07;;;;;;;;;27.00;21.00;;;;;9.09;72.77;99287.28;5074448;27;62624;-62
2021/11/03 08:54:34;;;;;;;;;28.50;21.75;;;;;9.21;72.48;99291.28;5074130;27;66626;-62
2021/11/03 08:57:00;;;;;;;;;23.00;21.25;;;;;9.28;71.92;99294.91;5075579;28;45811;-62
2021/11/03 08:59:26;;;;;;;;;24.25;23.25;;;;;9.34;71.74;99299.53;5075761;27;45473;-62
2021/11/03 09:01:51;;;;;;;;;29.00;23.00;;;;;9.43;71.39;99292.50;5075389;27;45498;-62
2021/11/03 09:04:17;;;;;;;;;23.00;18.50;;;;;9.49;71.03;99302.34;5074892;28;45520;-63
2021/11/03 09:06:42;;;;;;;;;19.50;19.00;;;;;9.54;70.87;99304.47;5075473;28;68555;-62
2021/11/03 09:09:07;;;;;;;;;21.25;19.75;;;;;9.57;70.62;99305.97;5076251;28;57288;-61
2021/11/03 09:11:33;;;;;;;;;22.00;19.25;;;;;9.58;70.54;99305.00;5076105;28;45715;-62
2021/11/03 09:13:58;;;;;;;;;23.25;17.75;;;;;9.61;70.31;99304.69;5074831;28;46232;-62
2021/11/03 09:16:24;;;;;;;;;26.00;19.00;;;;;9.62;70.23;99312.38;5074006;27;45631;-62
2021/11/03 09:18:49;;;;;;;;;25.00;21.25;;;;;9.65;70.22;99311.25;5076760;27;45458;-62
2021/11/03 09:21:15;;;;;;;;;22.00;21.25;;;;;9.68;70.45;99320.59;5075545;27;70248;-62
2021/11/03 09:23:41;;;;;;;;;21.75;20.00;;;;;9.69;70.27;99314.34;5075572;27;45469;-62
2021/11/03 09:26:07;;;;;;;;;22.50;21.00;;;;;9.73;70.29;99323.56;5074635;28;45477;-62
2021/11/03 09:28:32;;;;;;;;;24.50;19.50;;;;;9.74;69.67;99331.28;5075143;27;45457;-62
2021/11/03 09:30:58;;;;;;;;;23.50;23.25;;;;;9.76;69.81;99328.47;5074527;28;57623;-62
2021/11/03 09:33:24;;;;;;;;;20.75;18.75;;;;;9.76;69.67;99336.34;5075599;28;46626;-61
2021/11/03 09:35:50;;;;;;;;;23.75;19.00;;;;;9.78;69.76;99348.34;5056373;28;60183;-63
2021/11/03 09:38:18;;;;;;;;;23.00;21.50;;;;;9.81;69.80;99344.56;5075025;28;45596;-61
2021/11/03 09:41:06;;;;;;;;;17.25;17.25;;;;;9.83;69.72;99345.22;5076211;27;45445;-61
2021/11/03 09:43:47;;;;;;;;;21.75;17.50;;;;;9.82;69.63;99351.44;5073592;28;45447;-61
2021/11/03 09:46:26;;;;;;;;;20.00;17.50;;;;;9.84;69.61;99361.75;5074574;28;45481;-62
2021/11/03 09:48:58;;;;;;;;;24.25;22.00;;;;;9.85;69.11;99358.16;5075936;28;45288;-62
2021/11/03 09:51:25;;;;;;;;;21.25;18.25;;;;;9.86;69.21;99359.81;5074709;28;45652;-61
2021/11/03 09:53:56;;;;;;;;;16.50;14.75;;;;;9.85;69.43;99363.41;5073988;28;45522;-62
2021/11/03 09:56:43;;;;;;;;;23.75;18.50;;;;;9.85;68.89;99363.41;5074932;28;45457;-62
2021/11/03 09:59:18;;;;;;;;;22.00;20.00;;;;;9.86;69.15;99360.63;5074943;28;45485;-62
2021/11/03 10:01:47;;;;;;;;;20.00;18.00;;;;;9.93;69.41;99364.28;5074389;28;45590;-62
2021/11/03 10:04:47;;;;;;;;;21.50;19.00;;;;;10.01;69.61;99370.53;5074161;28;45548;-62
2021/11/03 10:07:36;;;;;;;;;24.75;21.50;;;;;10.09;69.09;99370.50;5074438;27;45980;-63
2021/11/03 10:10:28;;;;;;;;;20.75;15.50;;;;;10.19;68.10;99371.19;5075762;28;45482;-61
2021/11/03 10:12:54;;;;;;;;;19.75;18.00;;;;;10.29;67.80;99375.47;5075153;27;45591;-62
2021/11/03 10:15:21;;;;;;;;;18.25;16.75;;;;;10.41;67.03;99371.56;5074197;28;46738;-62
2021/11/03 10:18:07;;;;;;;;;19.25;17.25;;;;;10.62;66.70;99372.88;5074697;28;45814;-62
2021/11/03 10:20:35;;;;;;;;;20.25;16.25;;;;;10.84;66.85;99363.50;5074344;28;45301;-62
2021/11/03 10:23:22;;;;;;;;;17.50;16.75;;;;;11.11;66.33;99371.97;5074479;27;45486;-62
2021/11/03 10:25:55;;;;;;;;;19.75;17.25;;;;;11.34;65.32;99376.53;5073288;27;46059;-62
2021/11/03 10:28:54;;;;;;;;;15.75;15.75;;;;;11.45;64.67;99370.06;5057200;28;45455;-62
2021/11/03 10:31:19;;;;;;;;;19.00;15.00;;;;;11.59;64.57;99377.25;5018787;28;45552;-63
2021/11/03 10:33:45;;;;;;;;;14.67;14.00;;;;;11.72;63.40;99366.97;5073150;28;45360;-62
2021/11/03 10:36:13;;;;;;;;;15.00;13.00;;;;;11.87;62.90;99374.97;5075313;28;46332;-62
2021/11/03 10:38:41;;;;;;;;;17.50;16.00;;;;;12.01;61.87;99373.44;5073034;27;45951;-62
2021/11/03 10:41:18;;;;;;;;;13.50;13.50;;;;;12.10;61.59;99368.94;5075288;27;45382;-61
2021/11/03 10:43:43;;;;;;;;;18.75;16.50;;;;;12.17;62.25;99375.13;5073623;28;45489;-62
2021/11/03 10:46:21;;;;;;;;;13.50;12.75;;;;;12.27;61.74;99379.34;5075013;28;45524;-61
2021/11/03 10:49:05;;;;;;;;;18.50;17.00;;;;;12.37;61.23;99387.00;5073589;27;45949;-63
2021/11/03 10:51:34;;;;;;;;;12.75;12.25;;;;;12.39;60.20;99382.38;5072442;27;45474;-62
2021/11/03 10:54:12;;;;;;;;;12.50;11.50;;;;;12.38;60.63;99383.38;5070696;28;45442;-62
2021/11/03 10:56:57;;;;;;;;;16.50;13.25;;;;;12.44;60.33;99385.31;5072858;28;47430;-61
2021/11/03 10:59:24;;;;;;;;;16.00;15.00;;;;;12.44;60.68;99385.31;5074020;27;45508;-62
2021/11/03 11:01:49;;;;;;;;;16.00;12.75;;;;;12.43;60.12;99399.47;5075061;28;45412;-62
2021/11/03 11:04:29;;;;;;;;;17.25;12.50;;;;;12.37;61.23;99392.28;5073237;28;45456;-62
2021/11/03 11:07:00;;;;;;;;;15.75;13.50;;;;;12.36;61.00;99394.13;5072104;28;46480;-62
2021/11/03 11:09:32;;;;;;;;;16.25;16.25;;;;;12.29;60.67;99398.44;5071097;28;46382;-63
2021/11/03 11:12:07;;;;;;;;;16.75;14.00;;;;;12.24;61.09;99395.50;5073510;28;45502;-61
2021/11/03 11:14:33;;;;;;;;;13.75;12.50;;;;;12.20;60.57;99399.47;5073055;28;45513;-62
2021/11/03 11:17:04;;;;;;;;;13.75;12.00;;;;;12.17;60.97;99395.41;5053929;28;46469;-63
2021/11/03 11:20:02;;;;;;;;;14.00;12.75;;;;;12.20;61.06;99404.75;5072130;28;45761;-62
2021/11/03 11:22:49;;;;;;;;;23.25;20.25;;;;;12.23;61.21;99399.94;5065568;28;45415;-62
2021/11/03 11:25:17;;;;;;;;;16.25;14.50;;;;;12.28;61.20;99402.06;5057317;27;45531;-59
2021/11/03 11:27:56;;;;;;;;;19.75;17.00;;;;;12.32;60.62;99393.63;5073904;28;46506;-62
2021/11/03 11:30:23;;;;;;;;;12.75;12.75;;;;;12.38;60.79;99399.19;5072211;27;45462;-61
2021/11/03 11:33:07;;;;;;;;;15.00;12.00;;;;;12.41;60.79;99401.47;5056070;28;45420;-62